Time;durP1;ratioP1;P1;durP2;ratioP2;P2;SDS_P1;SDS_P2;PMS_P1;PMS_P2;Temp;Humidity;BMP_temperature;BMP_pressure;BME280_temperature;BME280_humidity;BME280_pressure;Samples;Min_cycle;Max_cycle;Signal;HPM_P1;HPM_P2
2023/05/05 00:01:58;;;;;;;14.27;12.87;;;18.20;99.90;;;;;;4995406;28;20526;-80
2023/05/05 00:04:24;;;;;;;14.63;13.10;;;18.20;99.90;;;;;;4995121;28;20476;-80
2023/05/05 00:06:51;;;;;;;15.57;14.00;;;18.10;99.90;;;;;;4996613;28;20227;-90
2023/05/05 00:09:17;;;;;;;15.63;13.90;;;18.10;99.90;;;;;;4995743;28;20188;-80
2023/05/05 00:11:43;;;;;;;14.90;13.33;;;18.00;99.90;;;;;;5011579;28;20856;-81
2023/05/05 00:14:08;;;;;;;17.83;14.40;;;18.00;99.90;;;;;;4995426;28;20235;-80
2023/05/05 00:16:34;;;;;;;16.27;13.07;;;17.90;99.90;;;;;;4996410;28;20452;-80
2023/05/05 00:19:00;;;;;;;14.47;12.40;;;17.90;99.90;;;;;;4995200;28;20210;-89
2023/05/05 00:21:26;;;;;;;14.47;12.77;;;17.90;99.90;;;;;;4995058;28;20712;-81
2023/05/05 00:23:52;;;;;;;18.17;13.80;;;17.80;99.90;;;;;;4994995;28;20425;-80
2023/05/05 00:26:18;;;;;;;14.73;13.10;;;17.80;99.90;;;;;;4995097;28;20438;-80
2023/05/05 00:28:44;;;;;;;16.20;14.50;;;17.80;99.90;;;;;;4996575;28;20919;-81
2023/05/05 00:31:09;;;;;;;15.00;13.40;;;17.80;99.90;;;;;;5016030;28;20207;-81
2023/05/05 00:33:35;;;;;;;15.07;13.30;;;17.80;99.90;;;;;;5012297;28;20203;-89
2023/05/05 00:36:01;;;;;;;15.70;14.10;;;17.80;99.90;;;;;;4994931;28;20275;-80
2023/05/05 00:38:27;;;;;;;16.93;14.07;;;17.80;99.90;;;;;;4996162;28;20172;-80
2023/05/05 00:40:53;;;;;;;16.73;14.67;;;17.70;99.90;;;;;;4994632;28;20204;-90
2023/05/05 00:43:18;;;;;;;16.00;13.37;;;17.70;99.90;;;;;;4996207;28;20432;-89
2023/05/05 00:45:46;;;;;;;16.77;13.57;;;17.60;99.90;;;;;;4995738;28;20199;-89
2023/05/05 00:48:12;;;;;;;15.00;13.33;;;17.50;99.90;;;;;;4996234;28;20179;-89
2023/05/05 00:50:38;;;;;;;16.47;14.23;;;17.50;99.90;;;;;;4994545;28;20537;-80
2023/05/05 00:53:05;;;;;;;16.23;14.60;;;17.50;99.90;;;;;;4995660;28;20473;-81
2023/05/05 00:55:33;;;;;;;16.90;15.10;;;17.40;99.90;;;;;;4994429;28;20449;-80
2023/05/05 00:57:59;;;;;;;15.97;14.27;;;17.40;99.90;;;;;;4993485;28;20424;-80
2023/05/05 01:00:25;;;;;;;17.27;14.90;;;17.30;99.90;;;;;;4994355;28;20481;-89
2023/05/05 01:02:51;;;;;;;16.63;14.93;;;17.20;99.90;;;;;;4994395;28;20808;-89
2023/05/05 01:05:17;;;;;;;16.17;14.47;;;17.10;99.90;;;;;;4994126;28;20488;-80
2023/05/05 01:08:31;;;;;;;18.57;15.17;;;17.00;99.90;;;;;;4995421;28;20417;-80
2023/05/05 01:11:06;;;;;;;17.60;14.40;;;16.90;99.90;;;;;;5003947;28;21029;-82
2023/05/05 01:13:51;;;;;;;16.70;14.90;;;16.90;99.90;;;;;;4996914;28;20440;-80
2023/05/05 01:16:23;;;;;;;15.33;13.87;;;16.80;99.90;;;;;;5010389;28;20448;-81
2023/05/05 01:18:57;;;;;;;17.70;15.20;;;16.70;99.90;;;;;;4995539;28;20520;-80
2023/05/05 01:21:35;;;;;;;15.93;14.20;;;16.60;99.90;;;;;;5010530;28;20854;-81
2023/05/05 01:24:36;;;;;;;15.67;13.93;;;16.60;99.90;;;;;;5010544;28;20483;-89
2023/05/05 01:27:29;;;;;;;18.10;15.73;;;16.60;99.90;;;;;;5010209;28;20508;-80
2023/05/05 01:30:32;;;;;;;14.70;13.13;;;16.60;99.90;;;;;;4995081;28;20418;-80
2023/05/05 01:33:05;;;;;;;18.30;15.70;;;16.50;99.90;;;;;;4995058;28;20507;-80
2023/05/05 01:35:42;;;;;;;17.77;15.60;;;16.50;99.90;;;;;;5010141;28;20445;-80
2023/05/05 01:38:21;;;;;;;15.97;14.33;;;16.40;99.90;;;;;;4995192;28;20988;-89
2023/05/05 01:40:51;;;;;;;17.63;14.60;;;16.40;99.90;;;;;;4993804;28;20461;-82
2023/05/05 01:43:20;;;;;;;16.20;14.47;;;16.40;99.90;;;;;;4994101;28;20746;-89
2023/05/05 01:45:47;;;;;;;16.73;14.60;;;16.30;99.90;;;;;;4994892;28;20430;-80
2023/05/05 01:48:17;;;;;;;19.47;16.07;;;16.30;99.90;;;;;;4995057;28;20418;-87
2023/05/05 01:50:45;;;;;;;16.40;14.70;;;16.20;99.90;;;;;;4993539;28;20457;-80
2023/05/05 01:53:11;;;;;;;18.27;15.83;;;16.20;99.90;;;;;;4994706;28;20421;-80
2023/05/05 01:55:38;;;;;;;17.80;15.90;;;16.20;99.90;;;;;;4999555;28;20528;-80
2023/05/05 01:58:06;;;;;;;18.63;16.63;;;16.10;99.90;;;;;;4994556;28;20425;-89
2023/05/05 02:00:33;;;;;;;15.90;14.20;;;16.10;99.90;;;;;;5009697;28;20487;-90
2023/05/05 02:03:03;;;;;;;17.60;15.10;;;16.10;99.90;;;;;;4993535;28;20512;-89
2023/05/05 02:05:31;;;;;;;17.13;15.33;;;16.00;99.90;;;;;;4993542;28;20485;-80
2023/05/05 02:07:59;;;;;;;18.90;16.80;;;15.90;99.90;;;;;;4993523;28;20422;-89
2023/05/05 02:10:26;;;;;;;18.90;15.90;;;15.90;99.90;;;;;;4994250;28;20956;-80
2023/05/05 02:12:52;;;;;;;17.00;15.20;;;15.90;99.90;;;;;;4994525;28;20432;-89
2023/05/05 02:15:21;;;;;;;17.77;14.23;;;15.80;99.90;;;;;;5009818;28;20464;-80
2023/05/05 02:17:51;;;;;;;16.03;14.40;;;15.70;99.90;;;;;;5009444;28;20941;-80
2023/05/05 02:20:17;;;;;;;20.13;16.50;;;15.70;99.90;;;;;;4994443;28;20481;-88
2023/05/05 02:22:44;;;;;;;17.77;15.83;;;15.60;99.90;;;;;;4994444;28;20427;-80
2023/05/05 02:25:10;;;;;;;17.50;15.70;;;15.60;99.90;;;;;;4994428;28;20429;-80
2023/05/05 02:27:39;;;;;;;24.40;16.23;;;15.60;99.90;;;;;;4994518;28;20456;-81
2023/05/05 02:30:12;;;;;;;17.77;15.80;;;15.60;99.90;;;;;;4993005;28;20212;-88
2023/05/05 02:32:52;;;;;;;17.37;14.57;;;15.60;99.90;;;;;;4993200;28;20425;-80
2023/05/05 02:35:22;;;;;;;17.53;15.13;;;15.50;99.90;;;;;;4994305;28;20445;-80
2023/05/05 02:37:51;;;;;;;16.93;14.47;;;15.50;99.90;;;;;;4994432;28;20456;-88
2023/05/05 02:40:23;;;;;;;19.10;16.00;;;15.40;99.90;;;;;;4993041;28;20841;-80
2023/05/05 02:42:50;;;;;;;16.97;14.37;;;15.50;99.90;;;;;;4994373;28;20903;-80
2023/05/05 02:45:18;;;;;;;17.77;14.10;;;15.50;99.90;;;;;;4994245;28;20445;-89
2023/05/05 02:47:44;;;;;;;15.73;14.03;;;15.40;99.90;;;;;;4994283;28;20417;-80
2023/05/05 02:50:10;;;;;;;18.47;14.50;;;15.50;99.90;;;;;;5009330;28;20468;-80
2023/05/05 02:52:36;;;;;;;16.73;14.77;;;15.50;99.90;;;;;;4994128;28;20168;-80
2023/05/05 02:55:04;;;;;;;20.63;16.37;;;15.50;99.90;;;;;;4994073;28;20449;-80
2023/05/05 02:57:37;;;;;;;17.50;15.43;;;15.40;99.90;;;;;;4993012;28;20420;-80
2023/05/05 03:00:37;;;;;;;17.33;15.53;;;15.40;99.90;;;;;;4994128;28;20485;-80
2023/05/05 03:03:17;;;;;;;16.67;14.47;;;15.30;99.90;;;;;;4994245;28;20429;-87
2023/05/05 03:06:03;;;;;;;16.23;14.53;;;15.20;99.90;;;;;;4993896;28;20485;-80
2023/05/05 03:08:47;;;;;;;18.03;15.40;;;15.10;99.90;;;;;;4993634;28;20420;-80
2023/05/05 03:11:42;;;;;;;16.80;15.00;;;15.20;99.90;;;;;;5009138;28;20441;-80
2023/05/05 03:14:10;;;;;;;16.33;14.53;;;15.30;99.90;;;;;;4989071;28;20524;-84
2023/05/05 03:16:39;;;;;;;17.10;15.37;;;15.40;99.90;;;;;;4993898;28;20445;-89
2023/05/05 03:19:07;;;;;;;16.37;14.63;;;15.40;99.90;;;;;;4994389;28;20968;-80
2023/05/05 03:21:33;;;;;;;19.10;16.57;;;15.40;99.90;;;;;;4994407;28;20813;-88
2023/05/05 03:23:59;;;;;;;17.70;15.40;;;15.40;99.90;;;;;;5013970;28;20504;-90
2023/05/05 03:26:25;;;;;;;18.33;14.67;;;15.40;99.90;;;;;;4998202;28;20669;-90
2023/05/05 03:28:51;;;;;;;17.90;15.73;;;15.40;99.90;;;;;;4996908;28;20421;-90
2023/05/05 03:31:17;;;;;;;18.43;16.43;;;15.40;99.90;;;;;;4996391;28;20235;-90
2023/05/05 03:33:43;;;;;;;22.00;18.77;;;15.50;99.90;;;;;;4997516;28;20203;-89
2023/05/05 03:36:09;;;;;;;19.23;16.43;;;15.50;99.90;;;;;;4997240;28;20472;-80
2023/05/05 03:38:35;;;;;;;18.57;16.63;;;15.50;99.90;;;;;;4997330;28;20176;-89
2023/05/05 03:41:04;;;;;;;23.13;17.30;;;15.50;99.90;;;;;;4997179;28;20496;-90
2023/05/05 03:43:30;;;;;;;23.00;15.17;;;15.60;99.90;;;;;;4997281;28;20585;-80
2023/05/05 03:45:56;;;;;;;16.83;14.83;;;15.60;99.90;;;;;;4996972;28;20445;-89
2023/05/05 03:48:21;;;;;;;20.00;14.60;;;15.60;99.90;;;;;;4995547;28;20539;-89
2023/05/05 03:50:47;;;;;;;18.33;16.40;;;15.60;99.90;;;;;;4996928;28;20709;-89
2023/05/05 03:53:13;;;;;;;21.03;16.07;;;15.70;99.90;;;;;;4997146;28;20238;-88
2023/05/05 03:55:39;;;;;;;17.97;15.00;;;15.70;99.90;;;;;;4996870;28;20481;-80
2023/05/05 03:58:05;;;;;;;18.83;15.70;;;15.70;99.90;;;;;;4996961;28;20183;-80
2023/05/05 04:00:31;;;;;;;16.03;14.30;;;15.70;99.90;;;;;;4995369;28;20704;-89
2023/05/05 04:02:57;;;;;;;18.50;16.10;;;15.70;99.90;;;;;;4995599;28;20421;-80
2023/05/05 04:05:22;;;;;;;16.77;14.97;;;15.70;99.90;;;;;;4994984;28;20250;-80
2023/05/05 04:07:48;;;;;;;15.83;14.23;;;15.70;99.90;;;;;;4996673;28;20178;-80
2023/05/05 04:10:14;;;;;;;18.20;15.70;;;15.70;99.90;;;;;;4997604;28;20208;-89
2023/05/05 04:12:39;;;;;;;62.53;37.30;;;15.70;99.90;;;;;;5011670;28;20262;-90
2023/05/05 04:15:06;;;;;;;58.43;42.10;;;15.80;99.90;;;;;;4996424;28;20514;-89
2023/05/05 04:17:31;;;;;;;16.50;14.90;;;15.80;99.90;;;;;;4994509;28;20637;-89
2023/05/05 04:19:57;;;;;;;16.73;14.67;;;15.90;99.90;;;;;;4975420;28;20532;-80
2023/05/05 04:22:22;;;;;;;15.37;13.87;;;16.00;99.90;;;;;;4975356;28;20215;-80
2023/05/05 04:24:48;;;;;;;16.60;14.40;;;16.10;99.90;;;;;;4991255;28;20183;-89
2023/05/05 04:27:14;;;;;;;15.00;13.57;;;16.10;99.90;;;;;;4994246;28;20636;-81
2023/05/05 04:29:40;;;;;;;14.97;13.60;;;16.20;99.90;;;;;;4975080;28;20908;-80
2023/05/05 04:32:05;;;;;;;18.77;14.00;;;16.30;99.90;;;;;;4974194;28;20181;-80
2023/05/05 04:34:31;;;;;;;17.90;14.90;;;16.30;99.90;;;;;;4987147;28;20190;-86
2023/05/05 04:36:57;;;;;;;16.80;15.00;;;16.30;99.90;;;;;;4992639;28;20212;-81
2023/05/05 04:39:22;;;;;;;16.80;14.43;;;16.30;99.90;;;;;;4991755;28;20469;-84
2023/05/05 04:41:48;;;;;;;16.87;15.07;;;16.30;99.90;;;;;;4991332;28;20593;-80
2023/05/05 04:44:14;;;;;;;37.77;18.70;;;16.30;99.90;;;;;;4992832;28;20219;-86
2023/05/05 04:46:40;;;;;;;17.47;13.93;;;16.40;99.90;;;;;;4992340;28;20223;-86
2023/05/05 04:49:06;;;;;;;16.40;14.00;;;16.50;99.90;;;;;;4990119;28;20425;-80
2023/05/05 04:51:32;;;;;;;154.47;32.07;;;16.50;99.90;;;;;;4970371;28;20446;-86
2023/05/05 04:53:57;;;;;;;35.43;15.83;;;16.60;99.90;;;;;;4970586;28;20255;-79
2023/05/05 04:56:23;;;;;;;63.53;39.23;;;16.70;99.90;;;;;;4970387;28;20207;-87
2023/05/05 04:58:49;;;;;;;22.77;16.27;;;16.80;99.90;;;;;;4982625;28;20212;-83
2023/05/05 05:01:15;;;;;;;18.60;14.17;;;16.80;99.90;;;;;;4989502;28;20591;-80
2023/05/05 05:03:41;;;;;;;21.80;14.60;;;16.80;99.90;;;;;;4977626;28;21093;-79
2023/05/05 05:06:07;;;;;;;22.43;14.53;;;16.90;99.90;;;;;;4973977;28;20473;-82
2023/05/05 05:08:32;;;;;;;16.80;12.73;;;16.90;99.90;;;;;;4974500;28;20200;-80
2023/05/05 05:10:58;;;;;;;17.67;13.33;;;17.00;99.90;;;;;;4985374;28;20689;-81
2023/05/05 05:13:24;;;;;;;18.80;12.83;;;17.00;99.90;;;;;;4990714;28;20194;-85
2023/05/05 05:15:50;;;;;;;17.03;12.20;;;17.10;99.90;;;;;;4989152;28;21029;-87
2023/05/05 05:18:16;;;;;;;13.23;11.20;;;17.10;99.90;;;;;;4994164;28;20937;-80
2023/05/05 05:20:42;;;;;;;13.30;12.00;;;17.20;99.90;;;;;;4993523;28;20477;-82
2023/05/05 05:23:08;;;;;;;75.57;18.20;;;17.20;99.90;;;;;;4989804;28;20266;-81
2023/05/05 05:25:33;;;;;;;163.30;28.67;;;17.20;99.90;;;;;;4992191;28;20552;-81
2023/05/05 05:27:59;;;;;;;281.60;40.03;;;17.20;99.90;;;;;;4988334;28;20706;-89
2023/05/05 05:30:25;;;;;;;100.70;23.27;;;17.10;99.90;;;;;;4983405;28;20669;-89
2023/05/05 05:32:50;;;;;;;22.00;12.27;;;17.10;99.90;;;;;;4986465;28;20507;-87
2023/05/05 05:35:16;;;;;;;25.10;11.33;;;17.10;99.90;;;;;;4981666;28;20283;-81
2023/05/05 05:37:42;;;;;;;295.30;35.37;;;17.00;99.90;;;;;;4982351;28;20367;-81
2023/05/05 05:40:08;;;;;;;18.43;12.50;;;17.00;99.90;;;;;;4981953;28;20231;-81
2023/05/05 05:42:34;;;;;;;17.43;10.83;;;17.10;99.90;;;;;;4991368;28;20214;-81
2023/05/05 05:45:00;;;;;;;14.13;10.37;;;17.10;99.90;;;;;;4977645;28;20459;-88
2023/05/05 05:47:26;;;;;;;11.33;9.30;;;17.20;99.90;;;;;;4977184;28;20268;-87
2023/05/05 05:49:52;;;;;;;11.13;9.23;;;17.30;99.90;;;;;;4982185;28;20456;-88
2023/05/05 05:52:18;;;;;;;9.23;8.23;;;17.30;99.90;;;;;;4990980;28;20433;-85
2023/05/05 05:54:43;;;;;;;9.30;8.10;;;17.40;99.90;;;;;;4989460;28;20183;-80
2023/05/05 05:57:09;;;;;;;10.10;8.83;;;17.50;99.90;;;;;;4973274;28;20701;-86
2023/05/05 05:59:34;;;;;;;11.70;10.13;;;17.60;99.90;;;;;;4970309;28;20216;-89
2023/05/05 06:02:00;;;;;;;10.00;9.03;;;17.70;99.90;;;;;;4970019;28;20560;-88
2023/05/05 06:04:26;;;;;;;10.27;8.03;;;17.80;99.90;;;;;;4971179;28;20232;-81
2023/05/05 06:06:52;;;;;;;10.73;9.60;;;17.90;99.90;;;;;;4980385;28;20206;-84
2023/05/05 06:09:17;;;;;;;12.00;9.50;;;17.90;99.90;;;;;;5003586;28;20195;-81
2023/05/05 06:11:43;;;;;;;10.30;9.00;;;18.00;99.90;;;;;;4990896;28;20207;-89
2023/05/05 06:14:08;;;;;;;10.03;9.03;;;18.10;99.90;;;;;;4988771;28;20188;-87
2023/05/05 06:16:34;;;;;;;10.27;9.27;;;18.20;99.90;;;;;;4977907;28;20232;-82
2023/05/05 06:19:00;;;;;;;11.23;8.57;;;18.30;99.90;;;;;;4996106;28;20228;-89
2023/05/05 06:21:26;;;;;;;10.53;9.47;;;18.40;99.90;;;;;;4992388;28;20192;-89
2023/05/05 06:23:52;;;;;;;11.13;8.87;;;18.50;99.90;;;;;;4991266;28;20270;-81
2023/05/05 06:26:18;;;;;;;10.30;9.30;;;18.60;99.90;;;;;;4989766;28;20533;-88
2023/05/05 06:28:43;;;;;;;10.73;8.13;;;18.60;99.90;;;;;;5005349;28;20206;-82
2023/05/05 06:31:11;;;;;;;9.97;8.97;;;18.70;99.90;;;;;;4991800;28;20196;-81
2023/05/05 06:33:37;;;;;;;10.80;9.17;;;18.80;99.90;;;;;;4993229;28;20220;-80
2023/05/05 06:36:03;;;;;;;10.67;9.07;;;18.90;99.90;;;;;;4991389;28;20854;-87
2023/05/05 06:38:28;;;;;;;11.90;10.27;;;19.00;99.90;;;;;;4993142;28;20190;-79
2023/05/05 06:40:54;;;;;;;11.27;10.07;;;19.10;99.90;;;;;;4974881;28;20495;-87
2023/05/05 06:43:20;;;;;;;10.47;8.70;;;19.20;99.90;;;;;;4975791;28;20178;-81
2023/05/05 06:45:46;;;;;;;10.97;9.00;;;19.20;99.90;;;;;;4989615;28;20206;-86
2023/05/05 06:48:11;;;;;;;11.83;10.00;;;19.30;99.90;;;;;;4990859;28;20422;-86
2023/05/05 06:50:37;;;;;;;10.87;8.73;;;19.40;99.90;;;;;;4985215;28;20272;-87
2023/05/05 06:53:03;;;;;;;10.60;8.97;;;19.40;99.90;;;;;;4990365;28;20305;-87
2023/05/05 06:55:28;;;;;;;12.20;9.50;;;19.40;99.90;;;;;;4984734;28;20217;-88
2023/05/05 06:57:54;;;;;;;8.83;8.03;;;19.50;99.90;;;;;;4994785;28;20181;-80
2023/05/05 07:00:21;;;;;;;11.37;8.67;;;19.50;99.90;;;;;;4984726;28;20257;-79
2023/05/05 07:02:47;;;;;;;10.37;9.30;;;19.50;99.90;;;;;;4981637;28;20449;-88
2023/05/05 07:05:12;;;;;;;12.37;8.83;;;19.70;99.90;;;;;;4983481;28;20480;-88
2023/05/05 07:07:50;;;;;;;9.30;8.33;;;19.80;99.90;;;;;;4981609;28;20183;-87
2023/05/05 07:10:16;;;;;;;12.10;9.40;;;20.00;99.90;;;;;;4987909;28;20214;-81
2023/05/05 07:12:41;;;;;;;9.37;8.53;;;20.20;99.90;;;;;;4984419;28;20990;-84
2023/05/05 07:15:07;;;;;;;9.87;8.83;;;20.20;99.90;;;;;;4981031;28;20266;-84
2023/05/05 07:17:33;;;;;;;11.13;9.43;;;20.20;99.90;;;;;;4988360;28;20187;-84
2023/05/05 07:19:59;;;;;;;15.53;9.70;;;20.30;99.90;;;;;;4986536;28;20519;-84
2023/05/05 07:22:24;;;;;;;11.73;9.37;;;20.50;99.90;;;;;;4989713;28;20199;-79
2023/05/05 07:24:52;;;;;;;11.10;9.90;;;20.60;99.90;;;;;;4987923;28;20192;-84
2023/05/05 07:27:18;;;;;;;12.63;9.47;;;20.80;99.90;;;;;;4995179;28;20199;-80
2023/05/05 07:29:44;;;;;;;9.50;8.50;;;20.90;99.90;;;;;;4983376;28;20449;-80
2023/05/05 07:32:09;;;;;;;10.07;9.07;;;21.00;99.90;;;;;;4980370;28;20507;-82
2023/05/05 07:34:36;;;;;;;9.37;8.53;;;21.10;99.90;;;;;;4990228;28;20972;-84
2023/05/05 07:37:03;;;;;;;12.03;10.27;;;21.20;99.90;;;;;;4990554;28;20188;-82
2023/05/05 07:39:29;;;;;;;11.60;9.90;;;21.20;99.90;;;;;;4990810;28;20480;-82
2023/05/05 07:41:54;;;;;;;10.83;9.73;;;21.30;99.90;;;;;;4979803;28;20441;-80
2023/05/05 07:44:20;;;;;;;10.93;9.73;;;21.30;99.90;;;;;;4983819;28;20183;-83
2023/05/05 07:46:46;;;;;;;9.53;8.10;;;21.40;99.90;;;;;;4989829;28;20200;-83
2023/05/05 07:49:12;;;;;;;9.27;8.37;;;21.40;99.90;;;;;;4976084;28;20234;-83
2023/05/05 07:51:37;;;;;;;10.27;8.40;;;21.50;99.90;;;;;;4991846;28;20222;-79
2023/05/05 07:54:03;;;;;;;11.17;10.07;;;21.70;99.90;;;;;;4994888;28;20191;-83
2023/05/05 07:56:29;;;;;;;10.17;9.10;;;21.90;99.90;;;;;;4981169;28;20681;-81
2023/05/05 07:58:55;;;;;;;10.00;8.97;;;22.00;99.90;;;;;;4984111;28;20480;-80
2023/05/05 08:01:21;;;;;;;9.37;8.47;;;22.00;99.90;;;;;;4976059;28;20651;-81
2023/05/05 08:03:46;;;;;;;15.00;10.37;;;22.10;99.90;;;;;;4974535;28;20285;-80
2023/05/05 08:06:20;;;;;;;11.90;10.20;;;22.20;99.90;;;;;;4974785;28;20258;-81
2023/05/05 08:08:47;;;;;;;11.10;10.00;;;22.30;99.90;;;;;;4975255;28;20717;-83
2023/05/05 08:11:16;;;;;;;10.80;9.80;;;22.30;99.90;;;;;;4988957;28;20831;-83
2023/05/05 08:13:43;;;;;;;10.90;9.80;;;22.30;99.90;;;;;;4980361;28;20458;-81
2023/05/05 08:16:08;;;;;;;10.73;9.17;;;22.30;99.90;;;;;;4977757;28;20965;-80
2023/05/05 08:18:36;;;;;;;10.37;9.33;;;22.40;99.90;;;;;;4990560;28;20446;-83
2023/05/05 08:21:06;;;;;;;12.43;10.00;;;22.50;99.90;;;;;;4990571;28;20574;-81
2023/05/05 08:23:33;;;;;;;9.60;8.70;;;22.50;99.90;;;;;;4985295;28;20529;-83
2023/05/05 08:25:59;;;;;;;11.67;9.43;;;22.60;99.90;;;;;;4983988;28;20446;-84
2023/05/05 08:28:24;;;;;;;10.80;9.80;;;22.60;99.90;;;;;;4972202;28;20438;-80
2023/05/05 08:30:50;;;;;;;11.50;10.40;;;22.70;99.90;;;;;;4972546;28;20211;-80
2023/05/05 08:33:16;;;;;;;10.00;9.00;;;22.90;99.90;;;;;;4973775;28;20184;-83
2023/05/05 08:35:42;;;;;;;9.97;9.07;;;23.00;99.90;;;;;;4985181;28;20212;-83
2023/05/05 08:38:08;;;;;;;8.70;8.00;;;23.10;99.90;;;;;;4977198;28;20718;-82
2023/05/05 08:40:35;;;;;;;9.60;8.70;;;23.20;99.90;;;;;;4971099;28;20482;-81
2023/05/05 08:43:02;;;;;;;10.83;9.83;;;23.20;99.90;;;;;;4973585;28;20195;-80
2023/05/05 08:45:28;;;;;;;22.90;19.60;;;23.20;99.90;;;;;;4972046;28;20470;-82
2023/05/05 08:47:56;;;;;;;11.57;9.30;;;23.20;99.90;;;;;;4979129;28;20439;-82
2023/05/05 08:50:25;;;;;;;8.80;7.90;;;23.10;99.90;;;;;;4981755;28;21079;-79
2023/05/05 08:52:59;;;;;;;12.10;7.70;;;23.10;99.90;;;;;;4975247;28;20460;-83
2023/05/05 08:55:30;;;;;;;8.40;7.60;;;23.10;99.90;;;;;;4976833;28;20427;-80
2023/05/05 08:57:59;;;;;;;8.20;7.53;;;23.10;99.90;;;;;;4989023;28;20480;-82
2023/05/05 09:00:26;;;;;;;8.27;7.47;;;23.20;99.90;;;;;;4971645;28;20519;-80
2023/05/05 09:02:55;;;;;;;8.97;8.17;;;23.30;99.90;;;;;;4975995;28;20472;-80
2023/05/05 09:05:21;;;;;;;8.77;7.77;;;23.40;99.90;;;;;;4990147;28;20524;-82
2023/05/05 09:07:47;;;;;;;7.60;6.90;;;23.50;99.90;;;;;;5004425;28;20430;-82
2023/05/05 09:10:13;;;;;;;7.97;7.17;;;23.50;99.90;;;;;;4987265;28;20743;-82
2023/05/05 09:12:40;;;;;;;7.53;6.50;;;23.60;99.90;;;;;;4986976;28;20812;-80
2023/05/05 09:15:07;;;;;;;7.10;6.50;;;23.70;99.90;;;;;;4989459;28;20455;-80
2023/05/05 09:17:33;;;;;;;7.37;6.53;;;23.70;99.90;;;;;;4988582;28;20795;-83
2023/05/05 09:20:04;;;;;;;8.50;7.57;;;23.90;99.90;;;;;;4981497;28;20487;-80
2023/05/05 09:22:43;;;;;;;8.27;7.57;;;24.10;99.90;;;;;;4982446;28;20181;-79
2023/05/05 09:25:11;;;;;;;7.73;6.97;;;24.00;99.90;;;;;;4979384;28;20457;-83
2023/05/05 09:27:40;;;;;;;8.07;7.37;;;24.10;99.90;;;;;;4974411;28;20845;-82
2023/05/05 09:30:06;;;;;;;7.63;6.93;;;24.10;99.90;;;;;;4973474;28;20439;-80
2023/05/05 09:32:50;;;;;;;7.97;7.20;;;24.20;99.90;;;;;;4988079;28;20430;-80
2023/05/05 09:35:17;;;;;;;8.17;7.30;;;24.20;99.90;;;;;;4971463;28;21060;-81
2023/05/05 09:37:44;;;;;;;6.60;6.03;;;24.10;99.90;;;;;;4971407;28;20972;-81
2023/05/05 09:40:12;;;;;;;7.13;6.50;;;24.10;99.90;;;;;;4977342;28;20505;-80
2023/05/05 09:42:38;;;;;;;7.20;6.60;;;24.10;99.90;;;;;;4971940;28;20864;-81
2023/05/05 09:45:25;;;;;;;7.00;6.40;;;24.10;99.90;;;;;;4976609;28;20537;-81
2023/05/05 09:47:51;;;;;;;6.90;6.20;;;24.10;99.90;;;;;;4978090;28;20443;-80
2023/05/05 09:50:17;;;;;;;6.43;5.90;;;24.00;99.90;;;;;;4981983;28;20449;-83
2023/05/05 09:53:00;;;;;;;7.07;6.47;;;24.00;99.90;;;;;;4973002;28;20460;-82
2023/05/05 09:55:26;;;;;;;7.50;6.80;;;23.90;99.90;;;;;;4980643;28;20996;-80
2023/05/05 09:57:52;;;;;;;8.43;7.63;;;23.90;99.90;;;;;;4985459;28;20451;-83
2023/05/05 10:00:18;;;;;;;12.20;11.00;;;23.90;99.90;;;;;;4974439;28;20562;-81
2023/05/05 10:02:44;;;;;;;9.80;8.80;;;24.10;99.90;;;;;;4980315;28;20174;-80
2023/05/05 10:05:15;;;;;;;7.07;6.37;;;24.20;99.90;;;;;;4976929;28;20485;-82
2023/05/05 10:07:42;;;;;;;7.20;6.50;;;24.30;99.90;;;;;;4979074;28;20435;-82
2023/05/05 10:10:11;;;;;;;6.53;5.93;;;24.40;99.90;;;;;;4976596;28;20454;-80
2023/05/05 10:12:37;;;;;;;6.47;5.87;;;24.50;99.90;;;;;;4989016;28;20425;-81
2023/05/05 10:15:05;;;;;;;5.70;5.30;;;24.60;99.90;;;;;;4987324;28;20480;-82
2023/05/05 10:17:34;;;;;;;5.83;5.33;;;24.50;99.90;;;;;;4981499;28;20468;-81
2023/05/05 10:20:03;;;;;;;5.87;5.47;;;24.50;99.90;;;;;;4974905;28;20489;-80
2023/05/05 10:22:33;;;;;;;6.17;5.57;;;24.70;99.90;;;;;;4979370;28;20420;-83
2023/05/05 10:25:08;;;;;;;6.53;6.03;;;24.70;99.70;;;;;;4983847;28;21036;-82
2023/05/05 10:27:42;;;;;;;6.40;5.90;;;24.70;99.60;;;;;;4985669;28;20459;-82
2023/05/05 10:30:28;;;;;;;6.40;5.90;;;24.70;99.70;;;;;;4990414;28;20498;-81
2023/05/05 10:33:02;;;;;;;5.67;5.17;;;24.70;99.60;;;;;;4979042;28;20442;-79
2023/05/05 10:35:31;;;;;;;5.97;5.57;;;24.70;99.60;;;;;;4979270;28;20535;-81
2023/05/05 10:37:58;;;;;;;7.17;6.50;;;24.60;99.60;;;;;;4983701;28;20856;-82
2023/05/05 10:40:24;;;;;;;8.20;7.40;;;24.60;99.40;;;;;;4983399;28;20789;-79
2023/05/05 10:42:52;;;;;;;15.67;13.10;;;24.60;99.60;;;;;;4989713;28;20502;-80
2023/05/05 10:45:18;;;;;;;14.10;11.90;;;24.50;99.70;;;;;;4976198;28;20206;-80
2023/05/05 10:47:44;;;;;;;10.87;9.60;;;24.50;99.90;;;;;;4980645;28;20436;-81
2023/05/05 10:50:24;;;;;;;9.93;8.70;;;24.40;99.90;;;;;;4984694;28;20268;-82
2023/05/05 10:53:15;;;;;;;9.23;8.37;;;24.30;99.70;;;;;;4983866;28;20196;-80
2023/05/05 10:56:06;;;;;;;12.50;10.80;;;24.30;99.60;;;;;;4971193;28;20438;-83
2023/05/05 10:58:38;;;;;;;7.73;7.13;;;24.20;99.90;;;;;;4980546;28;20478;-83
2023/05/05 11:01:05;;;;;;;10.47;8.70;;;24.10;99.70;;;;;;4976795;28;20483;-81
2023/05/05 11:03:31;;;;;;;7.87;7.20;;;24.10;99.90;;;;;;4969666;28;20436;-84
2023/05/05 11:06:03;;;;;;;8.23;7.43;;;24.00;99.90;;;;;;4979837;28;20462;-83
2023/05/05 11:08:47;;;;;;;8.93;7.83;;;24.10;99.60;;;;;;4984817;28;20436;-80
2023/05/05 11:11:13;;;;;;;7.00;6.40;;;24.00;99.90;;;;;;4984043;28;20505;-81
2023/05/05 11:13:39;;;;;;;6.50;6.00;;;24.00;99.80;;;;;;4990781;28;20431;-81
2023/05/05 11:16:41;;;;;;;6.97;6.37;;;24.10;99.70;;;;;;4988797;28;20201;-80
2023/05/05 11:19:42;;;;;;;6.17;5.63;;;24.10;99.40;;;;;;4997873;28;20460;-82
2023/05/05 11:22:08;;;;;;;6.07;5.57;;;24.20;99.20;;;;;;4979005;28;20439;-82
2023/05/05 11:24:38;;;;;;;7.10;6.40;;;24.40;99.90;;;;;;4981940;28;20800;-82
2023/05/05 11:27:04;;;;;;;5.90;5.50;;;24.50;99.70;;;;;;4983427;28;21094;-83
2023/05/05 11:30:06;;;;;;;5.50;5.00;;;24.60;99.70;;;;;;4969280;28;20544;-81
2023/05/05 11:32:32;;;;;;;6.47;5.70;;;24.80;99.20;;;;;;4977717;28;20436;-82
2023/05/05 11:34:59;;;;;;;6.03;5.50;;;24.90;99.00;;;;;;4974459;28;20487;-80
2023/05/05 11:37:27;;;;;;;6.57;5.50;;;25.00;98.40;;;;;;4987633;28;20917;-81
2023/05/05 11:40:05;;;;;;;7.40;5.70;;;25.00;98.20;;;;;;4983014;28;20497;-81
2023/05/05 11:42:30;;;;;;;6.10;5.63;;;25.00;98.20;;;;;;4978637;28;20537;-81
2023/05/05 11:44:57;;;;;;;6.50;5.90;;;25.10;98.10;;;;;;4982851;28;20851;-80
2023/05/05 11:47:22;;;;;;;6.33;5.83;;;25.00;97.70;;;;;;4986634;28;20433;-82
2023/05/05 11:49:48;;;;;;;5.37;4.97;;;25.10;98.00;;;;;;4980202;28;21017;-80
2023/05/05 11:52:14;;;;;;;5.90;5.37;;;25.20;98.00;;;;;;4975535;28;20378;-81
2023/05/05 11:54:49;;;;;;;6.10;5.60;;;25.30;97.00;;;;;;4983495;28;20942;-82
2023/05/05 11:57:27;;;;;;;5.23;4.73;;;25.30;97.20;;;;;;4984648;28;20195;-83
2023/05/05 11:59:58;;;;;;;6.10;5.50;;;25.40;96.50;;;;;;4980421;28;20465;-82
2023/05/05 12:02:26;;;;;;;6.40;5.27;;;25.30;96.40;;;;;;4987981;28;20420;-82
2023/05/05 12:04:52;;;;;;;6.10;5.30;;;25.20;96.00;;;;;;4990212;28;20977;-81
2023/05/05 12:07:21;;;;;;;6.17;5.57;;;25.00;96.40;;;;;;4994833;28;20911;-82
2023/05/05 12:09:48;;;;;;;5.57;5.17;;;25.10;96.90;;;;;;4989048;28;20449;-81
2023/05/05 12:12:15;;;;;;;5.87;5.37;;;25.10;97.00;;;;;;4986988;28;20519;-80
2023/05/05 12:14:46;;;;;;;6.20;5.70;;;25.20;97.00;;;;;;4976934;28;20455;-82
2023/05/05 12:17:12;;;;;;;6.80;5.27;;;25.20;96.90;;;;;;4985710;28;20429;-82
2023/05/05 12:19:51;;;;;;;6.30;5.77;;;25.10;97.00;;;;;;4979668;28;20539;-82
2023/05/05 12:22:23;;;;;;;5.93;5.30;;;25.10;97.10;;;;;;4979041;28;20446;-80
2023/05/05 12:24:55;;;;;;;6.40;5.80;;;25.10;97.10;;;;;;4984709;28;21030;-80
2023/05/05 12:27:21;;;;;;;8.30;6.13;;;25.00;96.80;;;;;;4980029;28;20444;-81
2023/05/05 12:29:48;;;;;;;6.53;5.93;;;25.00;96.90;;;;;;4984312;28;20463;-80
2023/05/05 12:32:21;;;;;;;7.30;6.60;;;25.00;97.20;;;;;;4983240;28;20431;-81
2023/05/05 12:34:52;;;;;;;6.73;6.07;;;24.90;96.90;;;;;;4993381;28;20435;-82
2023/05/05 12:37:19;;;;;;;7.23;6.53;;;24.90;96.90;;;;;;4991021;28;20439;-81
2023/05/05 12:39:45;;;;;;;6.07;5.50;;;24.80;97.00;;;;;;4983575;28;20581;-81
2023/05/05 12:42:11;;;;;;;7.53;6.27;;;24.90;97.00;;;;;;4979483;28;20523;-82
2023/05/05 12:44:40;;;;;;;6.33;5.80;;;24.80;96.80;;;;;;4980416;28;20541;-81